createdAt,value
2023-04-14T00:01:24.239Z,100313.50
2023-04-14T00:03:52.907Z,100319.47
2023-04-14T00:06:20.896Z,100328.28
2023-04-14T00:08:48.676Z,100335.91
2023-04-14T00:11:16.598Z,100347.53
2023-04-14T00:13:44.485Z,100341.94
2023-04-14T00:16:13.680Z,100346.38
2023-04-14T00:18:42.216Z,100355.88
2023-04-14T00:21:10.143Z,100352.22
2023-04-14T00:23:38.019Z,100353.38
2023-04-14T00:26:06.474Z,100353.38
2023-04-14T00:28:34.338Z,100355.88
2023-04-14T00:31:02.450Z,100360.19
2023-04-14T00:33:32.514Z,100358.53
2023-04-14T00:36:02.680Z,100359.38
2023-04-14T00:38:31.401Z,100363.84
2023-04-14T00:40:59.393Z,100369.97
2023-04-14T00:43:27.317Z,100364.00
2023-04-14T00:45:55.805Z,100367.47
2023-04-14T00:48:23.770Z,100365.94
2023-04-14T00:50:53.410Z,100371.41
2023-04-14T00:53:21.624Z,100370.88
2023-04-14T00:55:49.642Z,100366.56
2023-04-14T00:58:17.537Z,100367.72
2023-04-14T01:00:45.661Z,100359.59
2023-04-14T01:03:13.753Z,100358.75
2023-04-14T01:05:41.748Z,100358.75
2023-04-14T01:08:11.192Z,100360.28
2023-04-14T01:10:42.074Z,100358.75
2023-04-14T01:13:17.748Z,100364.06
2023-04-14T01:15:48.759Z,100371.03
2023-04-14T01:18:23.538Z,100369.06
2023-04-14T01:20:54.162Z,100363.75
2023-04-14T01:23:27.061Z,100368.38
2023-04-14T01:26:21.789Z,100368.53
2023-04-14T01:29:08.721Z,100359.06
2023-04-14T01:31:41.934Z,100360.59
2023-04-14T01:34:14.049Z,100364.72
2023-04-14T01:36:45.239Z,100365.13
2023-04-14T01:39:20.749Z,100369.09
2023-04-14T01:41:51.091Z,100363.78
2023-04-14T01:44:21.612Z,100370.06
2023-04-14T01:46:54.231Z,100376.22
2023-04-14T01:49:23.231Z,100366.28
2023-04-14T01:51:52.238Z,100369.59
2023-04-14T01:54:21.229Z,100365.44
2023-04-14T01:56:49.979Z,100370.91
2023-04-14T01:59:18.980Z,100369.09
2023-04-14T02:01:47.790Z,100370.06
2023-04-14T02:04:18.615Z,100369.09
2023-04-14T02:06:46.920Z,100373.72
2023-04-14T02:09:16.194Z,100372.72
2023-04-14T02:11:44.839Z,100373.56
2023-04-14T02:14:13.806Z,100373.88
2023-04-14T02:16:42.183Z,100375.84
2023-04-14T02:19:10.330Z,100373.19
2023-04-14T02:21:40.299Z,100370.75
2023-04-14T02:24:08.830Z,100371.06
2023-04-14T02:26:38.548Z,100372.03
2023-04-14T02:29:11.108Z,100377.19
2023-04-14T02:31:42.460Z,100375.00
2023-04-14T02:34:12.635Z,100388.56
2023-04-14T02:36:46.129Z,100386.13
2023-04-14T02:39:17.703Z,100392.41
2023-04-14T02:41:46.547Z,100392.41
2023-04-14T02:44:19.274Z,100389.81
2023-04-14T02:46:52.479Z,100392.56
2023-04-14T02:49:21.113Z,100397.75
2023-04-14T02:51:51.323Z,100395.78
2023-04-14T02:54:19.909Z,100396.88
2023-04-14T02:56:49.717Z,100399.06
2023-04-14T02:59:20.625Z,100403.09
2023-04-14T03:01:59.616Z,100406.56
2023-04-14T03:04:29.391Z,100391.78
2023-04-14T03:07:00.061Z,100393.78
2023-04-14T03:09:28.395Z,100390.13
2023-04-14T03:11:56.665Z,100389.59
2023-04-14T03:14:26.043Z,100391.56
2023-04-14T03:16:55.370Z,100390.44
2023-04-14T03:19:25.082Z,100388.91
2023-04-14T03:21:55.324Z,100383.25
2023-04-14T03:24:27.257Z,100389.66
2023-04-14T03:26:59.463Z,100396.53
2023-04-14T03:29:28.581Z,100398.81
2023-04-14T03:31:57.518Z,100404.53
2023-04-14T03:34:25.983Z,100399.66
2023-04-14T03:36:56.810Z,100393.59
2023-04-14T03:39:27.674Z,100394.13
2023-04-14T03:41:57.064Z,100394.13
2023-04-14T03:44:28.246Z,100400.84
2023-04-14T03:46:56.659Z,100400.72
2023-04-14T03:49:25.296Z,100404.50
2023-04-14T03:51:54.705Z,100392.59
2023-04-14T03:54:24.499Z,100392.44
2023-04-14T03:56:56.732Z,100384.34
2023-04-14T03:59:26.915Z,100383.25
2023-04-14T04:01:55.635Z,100388.25
2023-04-14T04:04:24.639Z,100382.09
2023-04-14T04:06:52.809Z,100384.16
2023-04-14T04:09:21.516Z,100385.13
2023-04-14T04:11:50.786Z,100384.00
2023-04-14T04:14:22.096Z,100372.56
2023-04-14T04:16:52.044Z,100373.25
2023-04-14T04:19:22.324Z,100383.16
2023-04-14T04:21:52.796Z,100373.41
2023-04-14T04:24:24.101Z,100364.28
2023-04-14T04:26:52.978Z,100366.28
2023-04-14T04:29:23.176Z,100363.47
2023-04-14T04:31:52.619Z,100367.56
2023-04-14T04:34:24.349Z,100370.38
2023-04-14T04:36:53.599Z,100375.13
2023-04-14T04:39:23.793Z,100378.78
2023-04-14T04:41:51.947Z,100377.69
2023-04-14T04:44:20.163Z,100377.69
2023-04-14T04:46:54.093Z,100377.38
2023-04-14T04:49:25.759Z,100376.13
2023-04-14T04:51:56.537Z,100372.66
2023-04-14T04:54:24.655Z,100369.84
2023-04-14T04:56:52.538Z,100377.19
2023-04-14T04:59:20.423Z,100375.00
2023-04-14T05:01:48.557Z,100376.34
2023-04-14T05:04:18.163Z,100387.34
2023-04-14T05:06:46.044Z,100386.19
2023-04-14T05:09:13.881Z,100373.66
2023-04-14T05:11:42.001Z,100381.13
2023-04-14T05:14:09.824Z,100372.03
2023-04-14T05:16:37.728Z,100377.56
2023-04-14T05:19:05.925Z,100375.16
2023-04-14T05:21:35.394Z,100374.59
2023-04-14T05:24:03.915Z,100379.38
2023-04-14T05:29:19.814Z,100389.00
2023-04-14T05:31:47.705Z,100386.50
2023-04-14T05:34:16.059Z,100390.31
2023-04-14T05:36:45.468Z,100395.59
2023-04-14T05:39:13.552Z,100393.47
2023-04-14T05:41:41.401Z,100391.81
2023-04-14T05:44:09.237Z,100392.13
2023-04-14T05:46:37.116Z,100386.44
2023-04-14T05:49:05.640Z,100386.97
2023-04-14T05:51:33.598Z,100385.31
2023-04-14T05:54:03.057Z,100388.41
2023-04-14T05:56:31.758Z,100388.56
2023-04-14T05:58:59.646Z,100385.59
2023-04-14T06:01:27.467Z,100389.63
2023-04-14T06:03:55.825Z,100389.63
2023-04-14T06:06:24.098Z,100384.69
2023-04-14T06:08:51.945Z,100388.72
2023-04-14T06:11:21.178Z,100386.19
2023-04-14T06:13:50.152Z,100386.75
2023-04-14T06:16:18.013Z,100387.88
2023-04-14T06:18:45.932Z,100397.56
2023-04-14T06:21:13.763Z,100404.09
2023-04-14T06:23:41.678Z,100409.09
2023-04-14T06:26:09.812Z,100400.69
2023-04-14T06:28:39.207Z,100400.03
2023-04-14T06:31:07.120Z,100403.03
2023-04-14T06:33:35.009Z,100406.69
2023-04-14T06:36:03.021Z,100411.69
2023-04-14T06:38:31.178Z,100403.03
2023-04-14T06:40:58.973Z,100397.22
2023-04-14T06:43:28.735Z,100398.41
2023-04-14T06:45:57.989Z,100406.06
2023-04-14T06:48:27.219Z,100405.06
2023-04-14T06:50:55.767Z,100405.16
2023-04-14T06:53:23.620Z,100412.13
2023-04-14T06:55:59.031Z,100397.41
2023-04-14T06:58:27.957Z,100397.72
2023-04-14T07:00:58.119Z,100406.88
2023-04-14T07:03:26.716Z,100408.28
2023-04-14T07:05:54.885Z,100402.81
2023-04-14T07:08:22.800Z,100408.31
2023-04-14T07:10:50.662Z,100400.88
2023-04-14T07:13:18.545Z,100400.38
2023-04-14T07:15:47.769Z,100397.25
2023-04-14T07:18:17.010Z,100399.69
2023-04-14T07:20:44.864Z,100398.50
2023-04-14T07:23:12.718Z,100403.81
2023-04-14T07:25:40.590Z,100403.03
2023-04-14T07:28:08.423Z,100403.94
2023-04-14T07:30:36.902Z,100407.66
2023-04-14T07:33:04.760Z,100408.34
2023-04-14T07:35:34.155Z,100416.50
2023-04-14T07:38:02.113Z,100425.09
2023-04-14T07:40:30.013Z,100419.78
2023-04-14T07:42:58.642Z,100417.44
2023-04-14T07:45:26.711Z,100421.50
2023-04-14T07:47:57.080Z,100431.28
2023-04-14T07:50:25.912Z,100427.66
2023-04-14T07:52:55.267Z,100426.28
2023-04-14T07:55:24.130Z,100430.75
2023-04-14T07:57:53.394Z,100427.44
2023-04-14T08:00:23.033Z,100432.44
2023-04-14T08:02:51.200Z,100429.53
2023-04-14T08:05:19.453Z,100437.81
2023-04-14T08:07:49.443Z,100430.75
2023-04-14T08:10:18.611Z,100423.78
2023-04-14T08:12:46.769Z,100418.34
2023-04-14T08:15:14.716Z,100416.13
2023-04-14T08:17:42.848Z,100413.56
2023-04-14T08:20:11.260Z,100409.41
2023-04-14T08:22:39.216Z,100415.16
2023-04-14T08:25:07.729Z,100410.00
2023-04-14T08:27:37.357Z,100418.75
2023-04-14T08:30:06.178Z,100409.25
2023-04-14T08:32:34.771Z,100410.84
2023-04-14T08:35:36.972Z,100407.41
2023-04-14T08:37:50.739Z,100405.00
2023-04-14T08:40:19.333Z,100400.22
2023-04-14T08:42:48.662Z,100395.84
2023-04-14T08:45:19.095Z,100391.72
2023-04-14T08:47:47.604Z,100399.00
2023-04-14T08:50:18.175Z,100392.59
2023-04-14T08:52:47.097Z,100391.34
2023-04-14T08:55:16.730Z,100386.84
2023-04-14T08:57:46.568Z,100380.81
2023-04-14T09:00:17.184Z,100377.63
2023-04-14T09:02:46.142Z,100382.09
2023-04-14T09:05:14.150Z,100384.81
2023-04-14T09:07:43.655Z,100387.72
2023-04-14T09:10:12.463Z,100385.31
2023-04-14T09:12:42.092Z,100386.78
2023-04-14T09:15:11.621Z,100380.66
2023-04-14T09:17:40.968Z,100391.50
2023-04-14T09:20:36.608Z,100379.94
2023-04-14T09:22:57.750Z,100384.53
2023-04-14T09:25:26.244Z,100385.97
2023-04-14T09:27:54.318Z,100385.59
2023-04-14T09:30:22.506Z,100388.25
2023-04-14T09:32:54.365Z,100390.91
2023-04-14T09:35:22.411Z,100387.75
2023-04-14T09:37:50.577Z,100394.63
2023-04-14T09:40:31.899Z,100381.50
2023-04-14T09:43:00.387Z,100385.47
2023-04-14T09:45:42.159Z,100376.56
2023-04-14T09:48:12.876Z,100374.84
2023-04-14T09:51:05.657Z,100376.97
2023-04-14T09:53:35.490Z,100375.38
2023-04-14T09:56:05.998Z,100384.69
2023-04-14T09:58:34.918Z,100369.41
2023-04-14T10:01:04.531Z,100369.41
2023-04-14T10:03:36.009Z,100375.47
2023-04-14T10:06:07.413Z,100379.91
2023-04-14T10:08:37.088Z,100378.56
2023-04-14T10:11:18.941Z,100373.41
2023-04-14T10:13:47.469Z,100378.56
2023-04-14T10:16:15.706Z,100370.75
2023-04-14T10:18:45.055Z,100378.84
2023-04-14T10:21:13.956Z,100380.31
2023-04-14T10:23:42.761Z,100363.94
2023-04-14T10:26:12.151Z,100366.81
2023-04-14T10:28:42.020Z,100359.25
2023-04-14T10:31:14.168Z,100359.84
2023-04-14T10:33:42.413Z,100354.78
2023-04-14T10:36:11.704Z,100351.19
2023-04-14T10:38:43.982Z,100354.78
2023-04-14T10:41:12.531Z,100351.72
2023-04-14T10:43:41.552Z,100357.13
2023-04-14T10:46:11.053Z,100349.91
2023-04-14T10:48:40.315Z,100347.81
2023-04-14T10:51:09.552Z,100346.81
2023-04-14T10:53:46.935Z,100342.94
2023-04-14T10:56:15.014Z,100337.06
2023-04-14T10:58:43.235Z,100343.88
2023-04-14T11:01:27.522Z,100341.38
2023-04-14T11:03:56.225Z,100342.50
2023-04-14T11:06:53.406Z,100339.59
2023-04-14T11:09:36.965Z,100346.88
2023-04-14T11:12:06.850Z,100346.56
2023-04-14T11:14:36.358Z,100347.84
2023-04-14T11:17:05.531Z,100350.97
2023-04-14T11:19:34.160Z,100343.84
2023-04-14T11:22:02.059Z,100349.59
2023-04-14T11:24:32.335Z,100346.00
2023-04-14T11:27:00.530Z,100345.31
2023-04-14T11:29:28.430Z,100340.72
2023-04-14T11:32:04.201Z,100332.75
2023-04-14T11:34:32.729Z,100335.09
2023-04-14T11:37:03.272Z,100337.81
2023-04-14T11:39:33.042Z,100337.44
2023-04-14T11:42:01.289Z,100335.06
2023-04-14T11:44:29.402Z,100336.19
2023-04-14T11:46:57.476Z,100336.09
2023-04-14T11:49:36.193Z,100340.34
2023-04-14T11:52:10.435Z,100337.78
2023-04-14T11:54:39.954Z,100332.41
2023-04-14T11:57:13.080Z,100330.22
2023-04-14T11:59:43.397Z,100324.38
2023-04-14T12:02:18.098Z,100332.41
2023-04-14T12:04:46.905Z,100327.78
2023-04-14T12:07:16.916Z,100328.50
2023-04-14T12:09:47.300Z,100331.16
2023-04-14T12:12:17.173Z,100327.84
2023-04-14T12:14:46.681Z,100321.81
2023-04-14T12:17:15.424Z,100321.81
2023-04-14T12:19:43.847Z,100325.00
2023-04-14T12:22:15.385Z,100322.56
2023-04-14T12:24:45.739Z,100326.06
2023-04-14T12:27:14.789Z,100324.09
2023-04-14T12:29:45.217Z,100320.75
2023-04-14T12:32:13.461Z,100317.06
2023-04-14T12:34:41.473Z,100312.53
2023-04-14T12:37:10.228Z,100315.41
2023-04-14T12:39:52.876Z,100316.56
2023-04-14T12:42:20.998Z,100297.09
2023-04-14T12:44:55.720Z,100300.41
2023-04-14T12:47:30.824Z,100302.91
2023-04-14T12:49:59.512Z,100299.72
2023-04-14T12:52:34.558Z,100296.50
2023-04-14T12:55:04.744Z,100298.50
2023-04-14T12:57:33.539Z,100295.19
2023-04-14T13:00:02.068Z,100290.47
2023-04-14T13:02:30.753Z,100295.53
2023-04-14T13:04:58.954Z,100297.69
2023-04-14T13:07:26.819Z,100290.47
2023-04-14T13:09:54.714Z,100281.06
2023-04-14T13:12:24.507Z,100281.69
2023-04-14T13:14:53.726Z,100282.63
2023-04-14T13:17:21.767Z,100282.63
2023-04-14T13:19:49.792Z,100276.06
2023-04-14T13:22:17.760Z,100278.31
2023-04-14T13:24:45.959Z,100273.63
2023-04-14T13:27:14.105Z,100277.81
2023-04-14T13:29:43.691Z,100275.13
2023-04-14T13:32:12.725Z,100271.59
2023-04-14T13:34:41.773Z,100261.31
2023-04-14T13:37:09.715Z,100265.06
2023-04-14T13:39:37.619Z,100261.84
2023-04-14T13:42:05.926Z,100255.44
2023-04-14T13:44:35.164Z,100257.44
2023-04-14T13:47:04.937Z,100265.16
2023-04-14T13:49:33.040Z,100267.03
2023-04-14T13:52:01.112Z,100258.84
2023-04-14T13:54:29.023Z,100253.34
2023-04-14T13:56:57.363Z,100257.25
2023-04-14T13:59:25.206Z,100253.25
2023-04-14T14:01:53.432Z,100255.38
2023-04-14T14:04:23.348Z,100249.78
2023-04-14T14:06:51.590Z,100248.63
2023-04-14T14:09:20.158Z,100249.38
2023-04-14T14:11:49.554Z,100251.88
2023-04-14T14:14:17.891Z,100247.78
2023-04-14T14:16:46.153Z,100255.28
2023-04-14T14:19:17.253Z,100250.53
2023-04-14T14:21:46.817Z,100257.50
2023-04-14T14:24:15.007Z,100250.75
2023-04-14T14:26:42.843Z,100251.25
2023-04-14T14:29:10.874Z,100240.50
2023-04-14T14:31:38.816Z,100239.09
2023-04-14T14:34:07.069Z,100243.00
2023-04-14T14:36:34.934Z,100230.75
2023-04-14T14:39:04.400Z,100226.44
2023-04-14T14:41:32.318Z,100220.81
2023-04-14T14:44:01.517Z,100217.22
2023-04-14T14:46:30.068Z,100221.56
2023-04-14T14:48:58.802Z,100228.69
2023-04-14T14:51:27.562Z,100220.34
2023-04-14T14:54:04.202Z,100220.84
2023-04-14T14:56:38.349Z,100221.47
2023-04-14T14:59:06.363Z,100220.41
2023-04-14T15:01:34.420Z,100209.66
2023-04-14T15:04:02.723Z,100222.81
2023-04-14T15:06:31.034Z,100224.78
2023-04-14T15:08:59.005Z,100218.00
2023-04-14T15:11:27.517Z,100222.16
2023-04-14T15:13:58.437Z,100221.25
2023-04-14T15:16:26.328Z,100221.56
2023-04-14T15:18:54.337Z,100224.78
2023-04-14T15:21:22.248Z,100233.56
2023-04-14T15:23:50.300Z,100229.22
2023-04-14T15:26:18.444Z,100226.41
2023-04-14T15:28:48.054Z,100227.69
2023-04-14T15:31:17.403Z,100225.03
2023-04-14T15:33:45.535Z,100228.72
2023-04-14T15:36:13.380Z,100227.59
2023-04-14T15:38:42.168Z,100236.22
2023-04-14T15:41:10.236Z,100230.03
2023-04-14T15:43:38.907Z,100233.50
2023-04-14T15:46:07.436Z,100229.72
2023-04-14T15:48:36.675Z,100231.84
2023-04-14T15:51:05.014Z,100236.84
2023-04-14T15:53:33.215Z,100232.53
2023-04-14T15:56:01.213Z,100234.88
2023-04-14T15:58:29.068Z,100242.66
2023-04-14T16:00:57.168Z,100246.59
2023-04-14T16:03:25.229Z,100249.47
2023-04-14T16:06:02.563Z,100243.78
2023-04-14T16:08:30.614Z,100240.47
2023-04-14T16:10:58.476Z,100245.75
2023-04-14T16:13:26.565Z,100241.00
2023-04-14T16:15:54.621Z,100244.78
2023-04-14T16:18:22.747Z,100242.28
2023-04-14T16:20:50.904Z,100237.13
2023-04-14T16:23:20.194Z,100238.34
2023-04-14T16:25:50.820Z,100234.03
2023-04-14T16:28:18.849Z,100236.69
2023-04-14T16:30:46.732Z,100228.44
2023-04-14T16:33:14.700Z,100233.72
2023-04-14T16:35:42.864Z,100233.72
2023-04-14T16:38:10.735Z,100223.34
2023-04-14T16:40:40.598Z,100220.31
2023-04-14T16:43:09.506Z,100227.81
2023-04-14T16:45:37.460Z,100234.88
2023-04-14T16:48:05.568Z,100232.06
2023-04-14T16:50:35.046Z,100230.78
2023-04-14T16:53:03.454Z,100223.66
2023-04-14T16:55:33.684Z,100227.53
2023-04-14T16:58:03.105Z,100216.63
2023-04-14T17:00:31.174Z,100220.34
2023-04-14T17:02:59.135Z,100220.13
2023-04-14T17:05:27.290Z,100216.69
2023-04-14T17:07:55.233Z,100222.16
2023-04-14T17:10:23.409Z,100221.78
2023-04-14T17:12:52.536Z,100230.63
2023-04-14T17:15:23.528Z,100227.97
2023-04-14T17:17:51.464Z,100228.59
2023-04-14T17:20:19.774Z,100234.88
2023-04-14T17:22:49.749Z,100237.50
2023-04-14T17:25:20.522Z,100239.34
2023-04-14T17:27:48.579Z,100243.97
2023-04-14T17:30:16.486Z,100235.03
2023-04-14T17:32:45.816Z,100228.75
2023-04-14T17:35:14.536Z,100221.78
2023-04-14T17:37:42.528Z,100219.44
2023-04-14T17:40:11.429Z,100223.91
2023-04-14T17:42:39.539Z,100221.63
2023-04-14T17:45:08.929Z,100221.19
2023-04-14T17:47:38.315Z,100226.63
2023-04-14T17:50:09.232Z,100229.56
2023-04-14T17:52:37.358Z,100237.06
2023-04-14T17:55:07.112Z,100243.22
2023-04-14T17:57:34.929Z,100236.25
2023-04-14T18:00:04.144Z,100235.94
2023-04-14T18:02:42.490Z,100243.22
2023-04-14T18:05:11.923Z,100247.22
2023-04-14T18:07:39.859Z,100246.69
2023-04-14T18:10:08.826Z,100242.75
2023-04-14T18:12:36.743Z,100240.25
2023-04-14T18:15:05.217Z,100242.91
2023-04-14T18:17:34.788Z,100237.97
2023-04-14T18:20:03.240Z,100244.72
2023-04-14T18:22:32.457Z,100239.44
2023-04-14T18:25:00.539Z,100249.88
2023-04-14T18:29:59.431Z,100243.44
2023-04-14T18:32:29.803Z,100238.81
2023-04-14T18:34:58.079Z,100239.81
2023-04-14T18:37:26.210Z,100249.19
2023-04-14T18:39:56.498Z,100247.81
2023-04-14T18:42:24.502Z,100251.38
2023-04-14T18:44:54.921Z,100248.19
2023-04-14T18:47:23.061Z,100248.34
2023-04-14T18:49:51.454Z,100254.63
2023-04-14T18:52:19.831Z,100248.66
2023-04-14T18:54:47.701Z,100238.91
2023-04-14T18:57:17.756Z,100230.53
2023-04-14T18:59:45.698Z,100229.34
2023-04-14T19:02:13.996Z,100232.81
2023-04-14T19:04:41.984Z,100220.03
2023-04-14T19:07:10.597Z,100211.94
2023-04-14T19:09:38.594Z,100207.16
2023-04-14T19:12:09.346Z,100207.09
2023-04-14T19:14:45.782Z,100201.72
2023-04-14T19:17:13.591Z,100206.63
2023-04-14T19:19:41.550Z,100204.03
2023-04-14T19:22:09.437Z,100202.47
2023-04-14T19:24:37.325Z,100192.50
2023-04-14T19:27:08.494Z,100188.19
2023-04-14T19:29:36.731Z,100183.56
2023-04-14T19:32:06.082Z,100188.19
2023-04-14T19:34:34.008Z,100181.63
2023-04-14T19:37:03.262Z,100181.16
2023-04-14T19:39:31.600Z,100186.09
2023-04-14T19:41:59.607Z,100184.81
2023-04-14T19:44:27.975Z,100182.19
2023-04-14T19:46:55.998Z,100189.97
2023-04-14T19:49:26.244Z,100193.91
2023-04-14T19:51:54.314Z,100191.94
2023-04-14T19:54:22.264Z,100188.25
2023-04-14T19:56:50.187Z,100182.66
2023-04-14T19:59:18.075Z,100180.31
2023-04-14T20:01:47.385Z,100191.06
2023-04-14T20:04:15.372Z,100190.50
2023-04-14T20:06:44.612Z,100191.78
2023-04-14T20:09:12.545Z,100198.22
2023-04-14T20:11:40.390Z,100200.97
2023-04-14T20:14:08.314Z,100204.97
2023-04-14T20:16:36.304Z,100210.28
2023-04-14T20:19:04.377Z,100208.59
2023-04-14T20:21:32.734Z,100200.50
2023-04-14T20:24:02.214Z,100200.81
2023-04-14T20:26:30.039Z,100195.66
2023-04-14T20:28:58.169Z,100193.03
2023-04-14T20:31:26.054Z,100187.44
2023-04-14T20:33:54.018Z,100188.41
2023-04-14T20:36:22.029Z,100181.53
2023-04-14T20:38:50.027Z,100173.22
2023-04-14T20:41:19.192Z,100172.06
2023-04-14T20:43:47.393Z,100174.34
2023-04-14T20:46:15.481Z,100169.88
2023-04-14T20:48:43.529Z,100170.56
2023-04-14T20:51:12.223Z,100164.28
2023-04-14T20:53:40.176Z,100159.38
2023-04-14T20:56:08.084Z,100157.03
2023-04-14T20:58:38.244Z,100158.69
2023-04-14T21:01:06.225Z,100157.03
2023-04-14T21:03:34.685Z,100155.88
2023-04-14T21:06:02.741Z,100158.69
2023-04-14T21:08:30.865Z,100159.88
2023-04-14T21:11:15.895Z,100156.88
2023-04-14T21:15:42.159Z,100147.47
2023-04-14T21:16:35.092Z,100142.81
2023-04-14T21:19:03.553Z,100146.88
2023-04-14T21:21:32.932Z,100152.03
2023-04-14T21:24:00.783Z,100142.66
2023-04-14T21:26:29.434Z,100138.56
2023-04-14T21:28:58.604Z,100129.63
2023-04-14T21:31:27.352Z,100134.41
2023-04-14T21:33:55.285Z,100136.91
2023-04-14T21:36:23.070Z,100136.91
2023-04-14T21:38:51.016Z,100141.66
2023-04-14T21:41:19.020Z,100137.34
2023-04-14T21:43:47.284Z,100137.44
2023-04-14T21:46:16.832Z,100130.72
2023-04-14T21:48:44.720Z,100129.78
2023-04-14T21:51:12.730Z,100123.13
2023-04-14T21:53:40.572Z,100118.66
2023-04-14T21:56:11.098Z,100116.16
2023-04-14T21:58:40.205Z,100113.22
2023-04-14T22:01:09.563Z,100106.56
2023-04-14T22:03:40.116Z,100104.44
2023-04-14T22:06:09.923Z,100106.56
2023-04-14T22:08:40.208Z,100103.09
2023-04-14T22:11:10.358Z,100103.78
2023-04-14T22:13:39.700Z,100097.78
2023-04-14T22:16:09.246Z,100107.41
2023-04-14T22:18:38.792Z,100104.38
2023-04-14T22:21:10.506Z,100094.31
2023-04-14T22:23:39.799Z,100095.81
2023-04-14T22:26:07.711Z,100092.03
2023-04-14T22:28:35.624Z,100093.78
2023-04-14T22:31:04.140Z,100095.47
2023-04-14T22:33:32.297Z,100087.25
2023-04-14T22:36:03.704Z,100090.00
2023-04-14T22:38:33.867Z,100089.19
2023-04-14T22:41:02.367Z,100087.06
2023-04-14T22:43:30.872Z,100091.66
2023-04-14T22:45:58.964Z,100091.31
2023-04-14T22:48:26.833Z,100091.16
2023-04-14T22:50:54.910Z,100094.09
2023-04-14T22:53:22.752Z,100081.03
2023-04-14T22:55:54.452Z,100081.22
2023-04-14T22:58:24.003Z,100095.63
2023-04-14T23:00:51.849Z,100089.50
2023-04-14T23:03:19.900Z,100088.50
2023-04-14T23:05:48.298Z,100099.66
2023-04-14T23:08:16.557Z,100088.66
2023-04-14T23:10:44.392Z,100094.84
2023-04-14T23:13:13.621Z,100087.06
2023-04-14T23:15:41.650Z,100089.03
2023-04-14T23:18:09.530Z,100090.31
2023-04-14T23:20:38.579Z,100088.50
2023-04-14T23:23:11.971Z,100091.59
2023-04-14T23:25:40.048Z,100091.88
2023-04-14T23:28:08.261Z,100092.44
2023-04-14T23:30:37.849Z,100090.31
2023-04-14T23:33:06.631Z,100094.09
2023-04-14T23:35:35.486Z,100089.63
2023-04-14T23:38:04.001Z,100092.44
2023-04-14T23:40:33.495Z,100087.41
2023-04-14T23:43:03.200Z,100078.50
2023-04-14T23:45:36.718Z,100074.88
2023-04-14T23:48:06.715Z,100081.84
2023-04-14T23:51:00.293Z,100081.03
2023-04-14T23:53:22.660Z,100080.03
2023-04-14T23:55:50.936Z,100078.06
2023-04-14T23:58:26.348Z,100081.53
